Time;durP1;ratioP1;P1;durP2;ratioP2;P2;SDS_P1;SDS_P2;PMS_P1;PMS_P2;Temp;Humidity;BMP_temperature;BMP_pressure;BME280_temperature;BME280_humidity;BME280_pressure;Samples;Min_cycle;Max_cycle;Signal;HPM_P1;HPM_P2
2022/03/10 00:01:58;;;;;;;143.05;70.70;;;;;;;;;;5074911;28;20115;-65
2022/03/10 00:04:24;;;;;;;140.18;69.78;;;;;;;;;;5056846;28;20028;-65
2022/03/10 00:06:51;;;;;;;145.57;71.28;;;;;;;;;;5075076;28;20032;-65
2022/03/10 00:09:17;;;;;;;131.85;67.13;;;;;;;;;;5074682;28;20024;-65
2022/03/10 00:11:43;;;;;;;136.68;67.85;;;;;;;;;;5074596;28;20028;-69
2022/03/10 00:14:10;;;;;;;141.35;68.75;;;;;;;;;;5074645;28;20033;-66
2022/03/10 00:16:37;;;;;;;134.02;66.40;;;;;;;;;;5074605;28;20039;-65
2022/03/10 00:19:03;;;;;;;128.00;64.05;;;;;;;;;;5074817;28;20465;-65
2022/03/10 00:21:29;;;;;;;121.72;63.45;;;;;;;;;;5074543;28;20024;-65
2022/03/10 00:23:55;;;;;;;119.97;62.40;;;;;;;;;;5074461;28;20056;-66
2022/03/10 00:26:22;;;;;;;118.60;61.22;;;;;;;;;;5074137;28;20059;-66
2022/03/10 00:28:48;;;;;;;114.93;61.50;;;;;;;;;;5074038;28;20398;-65
2022/03/10 00:31:14;;;;;;;113.03;58.03;;;;;;;;;;5074292;28;20032;-65
2022/03/10 00:33:40;;;;;;;118.72;59.67;;;;;;;;;;5074252;28;20091;-65
2022/03/10 00:36:07;;;;;;;121.10;60.80;;;;;;;;;;5074445;28;20052;-65
2022/03/10 00:38:34;;;;;;;116.15;61.85;;;;;;;;;;5056134;28;20024;-65
2022/03/10 00:41:00;;;;;;;111.93;62.42;;;;;;;;;;5074152;28;20025;-65
2022/03/10 00:43:26;;;;;;;126.63;66.60;;;;;;;;;;5056075;28;20028;-65
2022/03/10 00:45:52;;;;;;;162.02;79.95;;;;;;;;;;5056082;28;20032;-66
2022/03/10 00:48:18;;;;;;;157.15;78.45;;;;;;;;;;5074270;28;20111;-66
2022/03/10 00:50:45;;;;;;;155.77;77.63;;;;;;;;;;5055616;28;20028;-66
2022/03/10 00:53:11;;;;;;;144.63;75.85;;;;;;;;;;5073865;28;20025;-66
2022/03/10 00:55:38;;;;;;;143.88;73.95;;;;;;;;;;5073798;28;20031;-66
2022/03/10 00:58:04;;;;;;;141.85;71.75;;;;;;;;;;5073773;28;20024;-67
2022/03/10 01:00:30;;;;;;;140.60;70.75;;;;;;;;;;5073738;28;20028;-65
2022/03/10 01:02:58;;;;;;;131.45;68.05;;;;;;;;;;5073394;28;20020;-67
2022/03/10 01:05:24;;;;;;;129.55;69.50;;;;;;;;;;5073603;28;20031;-67
2022/03/10 01:07:50;;;;;;;121.28;63.97;;;;;;;;;;5055603;28;20381;-67
2022/03/10 01:10:17;;;;;;;121.35;62.83;;;;;;;;;;5073560;28;20025;-67
2022/03/10 01:12:45;;;;;;;134.90;72.13;;;;;;;;;;5073271;28;20469;-67
2022/03/10 01:15:22;;;;;;;128.55;69.50;;;;;;;;;;5055527;28;20460;-67
2022/03/10 01:17:49;;;;;;;128.68;67.90;;;;;;;;;;5073531;28;20040;-67
2022/03/10 01:20:15;;;;;;;111.80;61.55;;;;;;;;;;5073449;28;20119;-67
2022/03/10 01:22:41;;;;;;;120.20;63.83;;;;;;;;;;5073318;28;20078;-67
2022/03/10 01:25:08;;;;;;;125.05;65.65;;;;;;;;;;5073346;28;20031;-67
2022/03/10 01:27:35;;;;;;;125.30;67.00;;;;;;;;;;5072887;28;20050;-66
2022/03/10 01:30:01;;;;;;;125.03;64.90;;;;;;;;;;5073229;28;20032;-66
2022/03/10 01:32:28;;;;;;;116.32;61.50;;;;;;;;;;5073263;28;20032;-66
2022/03/10 01:34:54;;;;;;;124.68;64.75;;;;;;;;;;5072933;28;20084;-67
2022/03/10 01:37:20;;;;;;;124.38;64.75;;;;;;;;;;5055204;28;20035;-66
2022/03/10 01:39:47;;;;;;;112.95;62.17;;;;;;;;;;5073120;28;20040;-67
2022/03/10 01:42:13;;;;;;;113.65;60.45;;;;;;;;;;5073177;28;20488;-67
2022/03/10 01:44:40;;;;;;;114.82;62.50;;;;;;;;;;5055112;28;20346;-67
2022/03/10 01:47:06;;;;;;;115.30;59.83;;;;;;;;;;5073058;28;20064;-67
2022/03/10 01:49:33;;;;;;;117.68;61.28;;;;;;;;;;5073077;28;20032;-67
2022/03/10 01:52:00;;;;;;;113.03;60.78;;;;;;;;;;5073036;28;20028;-67
2022/03/10 01:54:27;;;;;;;124.22;64.20;;;;;;;;;;5054697;28;20032;-67
2022/03/10 01:56:53;;;;;;;122.93;63.00;;;;;;;;;;5073289;28;20033;-67
2022/03/10 01:59:20;;;;;;;120.80;65.45;;;;;;;;;;5072940;28;20133;-67
2022/03/10 02:01:47;;;;;;;113.65;61.15;;;;;;;;;;5073237;28;20040;-67
2022/03/10 02:04:13;;;;;;;122.93;60.60;;;;;;;;;;5054895;28;20037;-67
2022/03/10 02:06:39;;;;;;;113.40;61.72;;;;;;;;;;5072920;28;20028;-67
2022/03/10 02:11:51;;;;;;;119.35;60.70;;;;;;;;;;5072537;28;20039;-65
2022/03/10 02:17:21;;;;;;;115.72;60.63;;;;;;;;;;5076694;28;20028;-65
2022/03/10 02:19:51;;;;;;;126.20;62.90;;;;;;;;;;5076920;28;20024;-65
2022/03/10 02:22:17;;;;;;;131.50;71.80;;;;;;;;;;5076840;28;20025;-68
2022/03/10 02:24:44;;;;;;;133.90;68.43;;;;;;;;;;5058705;28;20020;-67
2022/03/10 02:27:14;;;;;;;139.25;71.28;;;;;;;;;;5058464;28;20493;-68
2022/03/10 02:29:42;;;;;;;134.73;69.68;;;;;;;;;;5076619;28;20375;-68
2022/03/10 02:32:09;;;;;;;136.60;71.20;;;;;;;;;;5058553;28;20028;-69
2022/03/10 02:34:35;;;;;;;134.95;72.75;;;;;;;;;;5076588;28;20028;-67
2022/03/10 02:37:01;;;;;;;142.63;71.57;;;;;;;;;;5076523;28;20025;-67
2022/03/10 02:39:27;;;;;;;143.52;76.05;;;;;;;;;;5076394;28;20031;-66
2022/03/10 02:41:53;;;;;;;142.95;74.30;;;;;;;;;;5076744;28;20037;-66
2022/03/10 02:44:19;;;;;;;141.48;73.60;;;;;;;;;;5076340;28;20131;-66
2022/03/10 02:46:46;;;;;;;148.02;75.78;;;;;;;;;;5058087;28;20032;-65
2022/03/10 02:49:12;;;;;;;144.07;76.47;;;;;;;;;;5058304;28;20035;-66
2022/03/10 02:51:38;;;;;;;145.60;75.53;;;;;;;;;;5058214;28;20032;-64
2022/03/10 02:54:04;;;;;;;163.57;84.43;;;;;;;;;;5076414;28;20033;-65
2022/03/10 02:56:30;;;;;;;162.20;85.20;;;;;;;;;;5075809;28;20469;-64
2022/03/10 02:58:56;;;;;;;159.15;84.93;;;;;;;;;;5076102;28;20438;-65
2022/03/10 03:01:23;;;;;;;159.75;85.10;;;;;;;;;;5058125;28;20028;-65
2022/03/10 03:03:49;;;;;;;153.32;82.97;;;;;;;;;;5076279;28;20031;-65
2022/03/10 03:06:15;;;;;;;141.23;78.75;;;;;;;;;;5076223;28;20032;-65
2022/03/10 03:08:42;;;;;;;137.45;75.72;;;;;;;;;;5075892;28;20024;-68
2022/03/10 03:11:08;;;;;;;132.18;73.03;;;;;;;;;;5075837;28;20086;-68
2022/03/10 03:13:34;;;;;;;140.32;72.50;;;;;;;;;;5075789;28;20043;-67
2022/03/10 03:16:00;;;;;;;135.93;71.32;;;;;;;;;;5075789;28;20462;-66
2022/03/10 03:18:27;;;;;;;122.15;65.75;;;;;;;;;;5057779;28;20020;-66
2022/03/10 03:20:53;;;;;;;128.35;67.78;;;;;;;;;;5075903;28;20029;-66
2022/03/10 03:23:19;;;;;;;110.03;62.22;;;;;;;;;;5057702;28;20039;-66
2022/03/10 03:25:45;;;;;;;120.55;66.95;;;;;;;;;;5057198;28;20024;-65
2022/03/10 03:28:11;;;;;;;121.70;65.30;;;;;;;;;;5075887;28;20113;-65
2022/03/10 03:30:37;;;;;;;122.93;66.32;;;;;;;;;;5057455;28;20083;-66
2022/03/10 03:33:04;;;;;;;124.78;66.75;;;;;;;;;;5075493;28;20120;-66
2022/03/10 03:35:31;;;;;;;116.05;64.03;;;;;;;;;;5075455;28;20064;-66
2022/03/10 03:37:57;;;;;;;109.60;59.42;;;;;;;;;;5075416;28;20021;-68
2022/03/10 03:40:24;;;;;;;112.55;62.13;;;;;;;;;;5075350;28;20085;-68
2022/03/10 03:42:50;;;;;;;115.20;66.10;;;;;;;;;;5075325;28;20111;-68
2022/03/10 03:45:16;;;;;;;123.55;68.72;;;;;;;;;;5075267;28;20115;-67
2022/03/10 03:47:43;;;;;;;114.03;64.63;;;;;;;;;;5075188;28;20025;-67
2022/03/10 03:50:09;;;;;;;98.57;55.35;;;;;;;;;;5057115;28;20119;-66
2022/03/10 03:52:35;;;;;;;106.90;54.92;;;;;;;;;;5074962;28;20794;-67
2022/03/10 03:55:02;;;;;;;93.35;51.95;;;;;;;;;;5079254;28;20032;-66
2022/03/10 03:57:28;;;;;;;93.88;52.90;;;;;;;;;;5084206;28;20107;-67
2022/03/10 03:59:54;;;;;;;91.22;50.05;;;;;;;;;;5067509;28;20031;-67
2022/03/10 04:02:21;;;;;;;91.93;48.42;;;;;;;;;;5088618;28;20074;-66
2022/03/10 04:04:47;;;;;;;75.32;43.83;;;;;;;;;;5095392;28;20039;-67
2022/03/10 04:07:14;;;;;;;65.97;36.35;;;;;;;;;;5095033;28;20107;-68
2022/03/10 04:09:40;;;;;;;58.22;32.17;;;;;;;;;;5076879;28;20070;-68
2022/03/10 04:12:07;;;;;;;51.17;29.85;;;;;;;;;;5076779;28;20040;-69
2022/03/10 04:14:33;;;;;;;34.90;21.42;;;;;;;;;;5095227;28;20032;-69
2022/03/10 04:16:59;;;;;;;27.90;15.70;;;;;;;;;;5095135;28;20035;-70
2022/03/10 04:19:25;;;;;;;21.23;13.88;;;;;;;;;;5067553;28;20165;-70
2022/03/10 04:21:51;;;;;;;24.13;15.32;;;;;;;;;;5066265;28;20028;-69
2022/03/10 04:24:18;;;;;;;23.10;15.05;;;;;;;;;;5064624;28;20024;-69
2022/03/10 04:26:44;;;;;;;22.83;13.98;;;;;;;;;;5088172;28;20051;-69
2022/03/10 04:29:11;;;;;;;22.25;13.65;;;;;;;;;;5094647;28;20024;-70
2022/03/10 04:31:38;;;;;;;22.33;13.95;;;;;;;;;;5094617;28;20484;-69
2022/03/10 04:34:04;;;;;;;24.67;15.13;;;;;;;;;;5094568;28;20039;-68
2022/03/10 04:36:30;;;;;;;25.67;16.13;;;;;;;;;;5094461;28;20028;-69
2022/03/10 04:38:56;;;;;;;24.95;15.30;;;;;;;;;;5093829;28;20028;-69
2022/03/10 04:41:23;;;;;;;23.00;14.80;;;;;;;;;;5076175;28;20081;-68
2022/03/10 04:43:49;;;;;;;26.02;16.60;;;;;;;;;;5076102;28;20077;-69
2022/03/10 04:46:15;;;;;;;25.50;16.10;;;;;;;;;;5094341;28;20024;-69
2022/03/10 04:48:42;;;;;;;24.52;16.23;;;;;;;;;;5094240;28;20032;-69
2022/03/10 04:51:09;;;;;;;29.02;16.63;;;;;;;;;;5076043;28;20385;-69
2022/03/10 04:53:35;;;;;;;24.50;15.32;;;;;;;;;;5094499;28;20081;-69
2022/03/10 04:56:01;;;;;;;30.75;18.10;;;;;;;;;;5094172;28;20031;-69
2022/03/10 04:58:27;;;;;;;30.48;18.58;;;;;;;;;;5069708;28;20469;-69
2022/03/10 05:00:53;;;;;;;31.23;18.17;;;;;;;;;;5094018;28;20472;-70
2022/03/10 05:03:20;;;;;;;29.25;17.73;;;;;;;;;;5093483;28;20094;-68
2022/03/10 05:05:47;;;;;;;28.48;17.20;;;;;;;;;;5093199;28;20028;-67
2022/03/10 05:08:14;;;;;;;32.22;19.98;;;;;;;;;;5093867;28;20380;-67
2022/03/10 05:10:40;;;;;;;28.20;17.83;;;;;;;;;;5075567;28;20032;-69
2022/03/10 05:13:06;;;;;;;27.60;17.00;;;;;;;;;;5075433;28;20059;-68
2022/03/10 05:15:32;;;;;;;29.70;18.30;;;;;;;;;;5093758;28;20495;-67
2022/03/10 05:17:59;;;;;;;27.85;16.95;;;;;;;;;;5093759;28;20028;-65
2022/03/10 05:20:26;;;;;;;29.65;18.35;;;;;;;;;;5093962;28;20032;-66
2022/03/10 05:22:53;;;;;;;28.52;17.98;;;;;;;;;;5075451;28;20084;-66
2022/03/10 05:25:20;;;;;;;31.40;19.23;;;;;;;;;;5091379;28;20143;-66
2022/03/10 05:27:47;;;;;;;29.58;17.95;;;;;;;;;;5093526;28;20043;-67
2022/03/10 05:30:14;;;;;;;30.25;18.20;;;;;;;;;;5075185;28;20032;-68
2022/03/10 05:32:40;;;;;;;29.38;17.70;;;;;;;;;;5093504;28;20028;-66
2022/03/10 05:35:08;;;;;;;31.92;18.83;;;;;;;;;;5093440;28;20073;-67
2022/03/10 05:37:36;;;;;;;29.95;18.05;;;;;;;;;;5075278;28;20027;-67
2022/03/10 05:40:03;;;;;;;26.83;18.67;;;;;;;;;;5093683;28;20587;-67
2022/03/10 05:42:29;;;;;;;29.50;17.70;;;;;;;;;;5075192;28;20081;-66
2022/03/10 05:44:55;;;;;;;28.13;17.25;;;;;;;;;;5093278;28;20024;-67
2022/03/10 05:47:21;;;;;;;29.23;18.08;;;;;;;;;;5093253;28;20020;-65
2022/03/10 05:49:49;;;;;;;28.92;17.35;;;;;;;;;;5092222;28;20081;-66
2022/03/10 05:52:15;;;;;;;30.15;17.13;;;;;;;;;;5075061;28;20035;-66
2022/03/10 05:54:41;;;;;;;25.33;16.60;;;;;;;;;;5093162;28;20024;-65
2022/03/10 05:57:08;;;;;;;26.13;16.38;;;;;;;;;;5093157;28;20031;-65
2022/03/10 05:59:34;;;;;;;31.10;17.55;;;;;;;;;;5092968;28;20024;-65
2022/03/10 06:02:00;;;;;;;30.13;18.30;;;;;;;;;;5074985;28;20147;-65
2022/03/10 06:04:26;;;;;;;28.20;17.52;;;;;;;;;;5093074;28;20115;-64
2022/03/10 06:06:52;;;;;;;25.70;16.67;;;;;;;;;;5074895;28;20077;-64
2022/03/10 06:09:18;;;;;;;30.08;17.25;;;;;;;;;;5093108;28;20115;-64
2022/03/10 06:11:45;;;;;;;26.13;16.73;;;;;;;;;;5092941;28;20039;-65
2022/03/10 06:14:11;;;;;;;26.00;15.90;;;;;;;;;;5092963;28;20031;-65
2022/03/10 06:16:37;;;;;;;24.65;15.80;;;;;;;;;;5092925;28;20035;-65
2022/03/10 06:19:04;;;;;;;24.98;16.10;;;;;;;;;;5074716;28;20035;-64
2022/03/10 06:21:30;;;;;;;27.35;16.23;;;;;;;;;;5074720;28;20090;-64
2022/03/10 06:23:56;;;;;;;27.95;16.40;;;;;;;;;;5074762;28;20492;-65
2022/03/10 06:26:23;;;;;;;27.13;16.75;;;;;;;;;;5092297;28;20048;-65
2022/03/10 06:28:49;;;;;;;29.80;17.55;;;;;;;;;;5092871;28;20039;-64
2022/03/10 06:31:15;;;;;;;25.50;15.73;;;;;;;;;;5092623;28;20376;-64
2022/03/10 06:33:41;;;;;;;25.70;15.48;;;;;;;;;;5092592;28;20032;-64
2022/03/10 06:36:07;;;;;;;23.42;14.98;;;;;;;;;;5092722;28;20150;-66
2022/03/10 06:38:36;;;;;;;20.73;13.90;;;;;;;;;;5074523;28;20127;-63
2022/03/10 06:41:02;;;;;;;21.48;14.07;;;;;;;;;;5074555;28;20399;-63
2022/03/10 06:43:28;;;;;;;20.48;12.50;;;;;;;;;;5092861;28;20027;-63
2022/03/10 06:45:54;;;;;;;18.25;11.55;;;;;;;;;;5092613;28;20020;-63
2022/03/10 06:48:20;;;;;;;19.45;12.63;;;;;;;;;;5092919;28;20016;-64
2022/03/10 06:50:46;;;;;;;20.67;11.60;;;;;;;;;;5092862;28;20024;-63
2022/03/10 06:53:13;;;;;;;19.73;11.82;;;;;;;;;;5092456;28;20028;-64
2022/03/10 06:55:39;;;;;;;17.98;11.10;;;;;;;;;;5092536;28;20028;-64
2022/03/10 06:58:05;;;;;;;16.23;9.55;;;;;;;;;;5092494;28;20111;-66
2022/03/10 07:00:32;;;;;;;20.52;11.15;;;;;;;;;;5092765;28;20032;-66
2022/03/10 07:02:58;;;;;;;16.52;9.77;;;;;;;;;;5077333;28;20020;-64
2022/03/10 07:05:25;;;;;;;15.52;9.75;;;;;;;;;;5096392;28;20066;-66
2022/03/10 07:07:51;;;;;;;17.13;10.35;;;;;;;;;;5096137;28;20368;-66
2022/03/10 07:10:17;;;;;;;16.70;9.88;;;;;;;;;;5095972;28;20464;-64
2022/03/10 07:12:43;;;;;;;18.13;10.32;;;;;;;;;;5096073;28;20028;-66
2022/03/10 07:15:11;;;;;;;16.77;10.05;;;;;;;;;;5077588;28;20020;-65
2022/03/10 07:17:37;;;;;;;21.25;12.15;;;;;;;;;;5095980;28;20481;-64
2022/03/10 07:20:04;;;;;;;17.80;10.48;;;;;;;;;;5095786;28;20024;-66
2022/03/10 07:22:30;;;;;;;16.90;10.68;;;;;;;;;;5077472;28;20046;-68
2022/03/10 07:24:57;;;;;;;15.07;10.00;;;;;;;;;;5095707;28;20040;-69
2022/03/10 07:27:23;;;;;;;19.60;9.57;;;;;;;;;;5095510;28;20028;-66
2022/03/10 07:29:49;;;;;;;13.98;9.13;;;;;;;;;;5095553;28;20028;-67
2022/03/10 07:32:16;;;;;;;20.45;14.18;;;;;;;;;;5095512;28;20032;-69
2022/03/10 07:34:44;;;;;;;19.15;12.52;;;;;;;;;;5095690;28;20479;-71
2022/03/10 07:37:10;;;;;;;17.65;11.30;;;;;;;;;;5095300;28;20024;-71
2022/03/10 07:39:37;;;;;;;17.33;10.80;;;;;;;;;;5095861;28;20103;-70
2022/03/10 07:42:03;;;;;;;19.80;12.27;;;;;;;;;;5077357;28;20036;-66
2022/03/10 07:44:30;;;;;;;21.05;10.82;;;;;;;;;;5095389;28;20030;-65
2022/03/10 07:46:56;;;;;;;16.10;10.38;;;;;;;;;;5095614;28;20032;-65
2022/03/10 07:49:22;;;;;;;17.75;10.30;;;;;;;;;;5095362;28;20106;-65
2022/03/10 07:51:48;;;;;;;18.30;10.18;;;;;;;;;;5095383;28;20028;-64
2022/03/10 07:54:14;;;;;;;17.00;10.85;;;;;;;;;;5095309;28;20028;-64
2022/03/10 07:56:40;;;;;;;19.08;11.32;;;;;;;;;;5095213;28;20020;-65
2022/03/10 07:59:07;;;;;;;25.65;10.00;;;;;;;;;;5095389;28;20063;-66
2022/03/10 08:01:33;;;;;;;17.02;10.98;;;;;;;;;;5095071;28;20107;-66
2022/03/10 08:03:59;;;;;;;17.75;11.55;;;;;;;;;;5076869;28;20123;-65
2022/03/10 08:06:27;;;;;;;18.27;10.48;;;;;;;;;;5095310;28;20032;-68
2022/03/10 08:08:53;;;;;;;19.67;10.77;;;;;;;;;;5094859;28;20028;-67
2022/03/10 08:11:20;;;;;;;15.80;10.20;;;;;;;;;;5094757;28;20047;-68
2022/03/10 08:13:46;;;;;;;15.55;10.43;;;;;;;;;;5093847;28;20068;-67
2022/03/10 08:16:12;;;;;;;14.65;10.13;;;;;;;;;;5094998;28;20102;-67
2022/03/10 08:18:38;;;;;;;16.35;9.50;;;;;;;;;;5076487;28;20024;-67
2022/03/10 08:21:05;;;;;;;18.25;10.48;;;;;;;;;;5094759;28;20040;-67
2022/03/10 08:23:31;;;;;;;23.83;10.77;;;;;;;;;;5076557;28;20024;-67
2022/03/10 08:25:57;;;;;;;21.10;11.07;;;;;;;;;;5094069;28;20127;-68
2022/03/10 08:28:26;;;;;;;18.58;10.13;;;;;;;;;;5076316;28;20479;-67
2022/03/10 08:30:52;;;;;;;20.52;12.95;;;;;;;;;;5094475;28;20472;-66
2022/03/10 08:33:18;;;;;;;19.48;9.90;;;;;;;;;;5076303;28;20028;-68
2022/03/10 08:35:44;;;;;;;20.75;10.48;;;;;;;;;;5075932;28;20028;-66
2022/03/10 08:38:11;;;;;;;16.20;10.63;;;;;;;;;;5072550;28;20024;-67
2022/03/10 08:40:37;;;;;;;13.98;10.15;;;;;;;;;;5067253;28;20028;-65
2022/03/10 08:43:05;;;;;;;18.52;9.73;;;;;;;;;;5094140;28;20448;-67
2022/03/10 08:45:31;;;;;;;14.68;10.02;;;;;;;;;;5084368;28;20031;-64
2022/03/10 08:47:57;;;;;;;15.80;8.73;;;;;;;;;;5073001;28;20021;-67
2022/03/10 08:50:25;;;;;;;24.35;13.07;;;;;;;;;;5073563;28;20040;-69
2022/03/10 08:52:51;;;;;;;18.13;9.95;;;;;;;;;;5073741;28;20398;-66
2022/03/10 08:55:17;;;;;;;18.33;11.30;;;;;;;;;;5055579;28;20048;-69
2022/03/10 08:57:44;;;;;;;17.23;11.13;;;;;;;;;;5073568;28;20028;-67
2022/03/10 09:00:11;;;;;;;19.27;10.25;;;;;;;;;;5073729;28;20369;-68
2022/03/10 09:02:37;;;;;;;25.35;15.77;;;;;;;;;;5073548;28;20028;-67
2022/03/10 09:05:04;;;;;;;24.23;13.02;;;;;;;;;;5055495;28;20135;-70
2022/03/10 09:07:30;;;;;;;16.42;10.25;;;;;;;;;;5073392;28;20111;-69
2022/03/10 09:09:57;;;;;;;31.48;22.27;;;;;;;;;;5073262;28;20028;-66
2022/03/10 09:12:23;;;;;;;38.67;27.00;;;;;;;;;;5073595;28;20072;-70
2022/03/10 09:14:49;;;;;;;17.42;10.90;;;;;;;;;;5073377;28;20106;-70
2022/03/10 09:17:16;;;;;;;26.35;13.68;;;;;;;;;;5073314;28;20487;-68
2022/03/10 09:19:42;;;;;;;25.83;15.20;;;;;;;;;;5073335;28;20484;-74
2022/03/10 09:22:08;;;;;;;31.40;21.38;;;;;;;;;;5055192;28;20484;-68
2022/03/10 09:24:34;;;;;;;45.47;25.88;;;;;;;;;;5072791;28;20033;-69
2022/03/10 09:27:00;;;;;;;21.08;10.98;;;;;;;;;;5072785;28;20049;-68
2022/03/10 09:29:27;;;;;;;12.00;9.38;;;;;;;;;;5055215;28;20359;-68
2022/03/10 09:31:53;;;;;;;16.10;9.18;;;;;;;;;;5055095;28;20029;-68
2022/03/10 09:34:19;;;;;;;13.93;8.85;;;;;;;;;;5071658;28;20044;-68
2022/03/10 09:36:45;;;;;;;13.60;9.65;;;;;;;;;;5071995;28;20029;-68
2022/03/10 09:39:13;;;;;;;17.30;10.30;;;;;;;;;;5072720;28;20141;-68
2022/03/10 09:41:40;;;;;;;22.25;9.32;;;;;;;;;;5073297;28;20043;-68
2022/03/10 09:44:17;;;;;;;19.73;9.40;;;;;;;;;;5073329;28;20115;-68
2022/03/10 09:46:44;;;;;;;15.60;9.48;;;;;;;;;;5055083;28;20035;-68
2022/03/10 09:49:10;;;;;;;16.70;10.20;;;;;;;;;;5072935;28;20028;-68
2022/03/10 09:51:36;;;;;;;14.30;9.68;;;;;;;;;;5072487;28;20028;-68
2022/03/10 09:54:04;;;;;;;16.83;8.95;;;;;;;;;;5072942;28;20028;-68
2022/03/10 09:56:30;;;;;;;13.35;8.23;;;;;;;;;;5055043;28;20404;-68
2022/03/10 09:58:57;;;;;;;14.40;10.90;;;;;;;;;;5055219;28;20437;-68
2022/03/10 10:01:23;;;;;;;13.68;8.75;;;;;;;;;;5072722;28;20025;-68
2022/03/10 10:03:49;;;;;;;26.77;15.13;;;;;;;;;;5072714;28;20055;-68
2022/03/10 10:06:15;;;;;;;150.35;63.05;;;;;;;;;;5072962;28;20171;-68
2022/03/10 10:08:42;;;;;;;226.23;83.68;;;;;;;;;;5072698;28;20027;-68
2022/03/10 10:11:08;;;;;;;51.92;21.88;;;;;;;;;;5054391;28;20028;-67
2022/03/10 10:13:39;;;;;;;94.07;40.70;;;;;;;;;;5072661;28;20035;-68
2022/03/10 10:16:05;;;;;;;87.00;39.88;;;;;;;;;;5072727;28;20029;-67
2022/03/10 10:18:32;;;;;;;71.93;32.90;;;;;;;;;;5072646;28;20504;-68
2022/03/10 10:20:59;;;;;;;35.72;15.60;;;;;;;;;;5072635;28;20271;-67
2022/03/10 10:23:31;;;;;;;36.92;19.48;;;;;;;;;;5072796;28;20024;-67
2022/03/10 10:25:57;;;;;;;;;;;;;;;;;;5072766;28;20052;-68
2022/03/10 10:28:43;;;;;;;23.98;12.00;;;;;;;;;;5072597;28;19954;-67
2022/03/10 10:31:11;;;;;;;16.05;11.45;;;;;;;;;;5072523;28;20032;-67
2022/03/10 10:33:38;;;;;;;32.78;23.77;;;;;;;;;;5072507;28;20086;-68
2022/03/10 10:36:12;;;;;;;44.88;29.30;;;;;;;;;;5073393;28;20081;-67
2022/03/10 10:38:38;;;;;;;12.45;7.80;;;;;;;;;;5076430;28;20067;-67
2022/03/10 10:41:25;;;;;;;11.95;8.68;;;;;;;;;;5076396;28;20025;-67
2022/03/10 10:43:53;;;;;;;15.13;9.05;;;;;;;;;;5076338;28;20025;-67
2022/03/10 10:46:25;;;;;;;13.18;8.18;;;;;;;;;;5076311;28;20029;-67
2022/03/10 10:48:51;;;;;;;11.90;7.57;;;;;;;;;;5076290;28;20025;-67
2022/03/10 10:51:47;;;;;;;14.90;8.30;;;12.50;88.60;;;;;;5076118;28;20373;-69
2022/03/10 10:54:34;;;;;;;13.70;9.75;;;;;;;;;;5075970;28;20032;-68
2022/03/10 10:57:02;;;;;;;19.48;8.60;;;12.40;60.80;;;;;;5058135;28;20396;-68
2022/03/10 10:59:40;;;;;;;14.23;8.73;;;14.20;56.80;;;;;;5076076;28;20024;-68
2022/03/10 11:02:16;;;;;;;14.52;8.77;;;14.20;56.80;;;;;;5076000;28;20373;-67
2022/03/10 11:04:47;;;;;;;14.80;8.80;;;13.40;57.30;;;;;;5057964;28;20027;-67
2022/03/10 11:07:14;;;;;;;12.13;8.23;;;12.40;64.30;;;;;;5075959;28;20109;-66
2022/03/10 11:09:44;;;;;;;16.33;9.43;;;;;;;;;;5057875;28;20036;-66
2022/03/10 11:12:13;;;;;;;15.35;8.80;;;;;;;;;;5075709;28;20033;-66
2022/03/10 11:14:39;;;;;;;14.48;9.60;;;11.40;95.20;;;;;;5075824;28;20086;-67
2022/03/10 11:17:06;;;;;;;10.98;7.75;;;12.60;65.60;;;;;;5075423;28;20416;-67
2022/03/10 11:19:39;;;;;;;13.32;8.18;;;;;;;;;;5075677;28;20024;-67
2022/03/10 11:22:08;;;;;;;13.95;8.95;;;11.50;65.50;;;;;;5075659;28;20029;-67
2022/03/10 11:24:47;;;;;;;14.20;9.48;;;;;;;;;;5075550;28;20070;-67
2022/03/10 11:27:17;;;;;;;12.80;8.40;;;11.90;96.00;;;;;;5034309;28;20060;-67
2022/03/10 11:29:47;;;;;;;12.90;7.88;;;12.10;62.20;;;;;;5035964;28;20438;-67
2022/03/10 11:32:13;;;;;;;12.07;8.30;;;;;;;;;;5034114;28;20521;-67
2022/03/10 11:34:50;;;;;;;10.77;7.45;;;13.80;61.30;;;;;;5035445;28;20037;-67
2022/03/10 11:37:41;;;;;;;12.07;7.78;;;16.90;54.80;;;;;;5034130;28;20032;-67
2022/03/10 11:40:41;;;;;;;12.32;7.95;;;15.80;55.30;;;;;;5035468;28;20036;-67
2022/03/10 11:43:08;;;;;;;11.00;7.68;;;15.00;59.70;;;;;;5030275;28;20454;-67
2022/03/10 11:45:34;;;;;;;13.60;7.78;;;15.20;58.10;;;;;;5035304;28;20033;-67
2022/03/10 11:48:28;;;;;;;10.07;7.13;;;14.50;56.80;;;;;;5035112;28;20021;-67
2022/03/10 11:50:55;;;;;;;10.63;7.75;;;13.30;60.20;;;;;;5032587;28;20475;-67
2022/03/10 11:53:21;;;;;;;11.90;7.82;;;14.80;59.70;;;;;;5033703;28;20041;-71
2022/03/10 11:55:53;;;;;;;10.38;7.80;;;16.10;57.90;;;;;;5035093;28;20033;-67
2022/03/10 11:58:29;;;;;;;12.60;8.75;;;16.20;55.70;;;;;;5035015;28;20122;-65
2022/03/10 12:00:57;;;;;;;11.73;8.30;;;14.40;55.30;;;;;;5035261;28;20036;-66
2022/03/10 12:03:33;;;;;;;14.50;8.00;;;13.40;61.10;;;;;;5033482;28;20091;-66
2022/03/10 12:06:04;;;;;;;13.18;8.55;;;12.90;61.60;;;;;;5034802;28;20044;-64
2022/03/10 12:08:35;;;;;;;20.70;10.50;;;12.00;61.40;;;;;;5034866;28;20026;-66
2022/03/10 12:11:03;;;;;;;17.70;9.27;;;11.60;66.30;;;;;;5034685;28;20112;-65
2022/03/10 12:13:30;;;;;;;14.90;9.07;;;;;;;;;;5034439;28;20071;-65
2022/03/10 12:15:58;;;;;;;16.55;12.38;;;;;;;;;;5034184;28;20381;-65
2022/03/10 12:18:28;;;;;;;14.73;9.90;;;11.50;64.10;;;;;;5033559;28;20379;-65
2022/03/10 12:20:55;;;;;;;43.42;32.45;;;12.50;64.50;;;;;;5034807;28;20462;-65
2022/03/10 12:23:26;;;;;;;14.85;9.80;;;;;;;;;;5034810;28;20044;-65
2022/03/10 12:25:57;;;;;;;16.05;8.60;;;;;;;;;;5052418;28;20049;-65
2022/03/10 12:28:31;;;;;;;14.07;9.85;;;;;;;;;;5074421;28;20440;-65
2022/03/10 12:31:06;;;;;;;12.85;8.85;;;11.80;86.80;;;;;;5074140;28;20032;-66
2022/03/10 12:33:34;;;;;;;13.13;9.02;;;12.60;62.80;;;;;;5074130;28;20111;-67
2022/03/10 12:36:01;;;;;;;13.65;9.02;;;16.20;56.60;;;;;;5074181;28;20097;-65
2022/03/10 12:38:37;;;;;;;13.73;9.68;;;;;;;;;;5056168;28;20028;-67
2022/03/10 12:41:04;;;;;;;21.95;10.27;;;15.00;59.90;;;;;;5056162;28;20021;-66
2022/03/10 12:43:30;;;;;;;16.15;9.57;;;12.70;64.60;;;;;;5074033;28;20024;-66
2022/03/10 12:45:58;;;;;;;15.43;9.77;;;12.40;66.30;;;;;;5074307;28;20086;-67
2022/03/10 12:48:52;;;;;;;15.55;9.02;;;11.80;64.20;;;;;;5073972;28;20074;-65
2022/03/10 12:51:28;;;;;;;15.73;10.95;;;;;;;;;;5022390;28;20044;-65
2022/03/10 12:53:55;;;;;;;16.98;10.50;;;;;;;;;;5073764;28;20074;-65
2022/03/10 12:56:21;;;;;;;13.25;10.00;;;;;;;;;;5073717;28;20017;-65
2022/03/10 12:58:49;;;;;;;25.58;14.52;;;;;;;;;;5073236;28;20545;-65
2022/03/10 13:01:15;;;;;;;27.50;13.48;;;11.90;98.40;;;;;;5073680;28;20039;-66
2022/03/10 13:03:48;;;;;;;23.15;12.23;;;;;;;;;;5073594;28;20082;-66
2022/03/10 13:06:19;;;;;;;17.15;11.32;;;18.50;56.90;;;;;;5073566;28;20024;-66
2022/03/10 13:08:55;;;;;;;18.77;11.07;;;14.10;62.80;;;;;;5073544;28;20477;-66
2022/03/10 13:11:24;;;;;;;16.42;9.48;;;12.60;65.30;;;;;;5073478;28;20075;-65
2022/03/10 13:14:08;;;;;;;18.33;12.20;;;11.80;69.10;;;;;;5055498;28;20484;-66
2022/03/10 13:16:36;;;;;;;18.27;10.20;;;14.70;62.20;;;;;;5073475;28;20040;-66
2022/03/10 13:19:03;;;;;;;12.85;10.38;;;;;;;;;;5072943;28;20546;-66
2022/03/10 13:21:29;;;;;;;17.77;10.60;;;;;;;;;;5073198;28;20037;-65
2022/03/10 13:23:55;;;;;;;15.10;10.63;;;17.80;57.00;;;;;;5055160;28;20029;-66
2022/03/10 13:26:24;;;;;;;16.75;10.82;;;20.30;53.90;;;;;;5055065;28;20117;-66
2022/03/10 13:28:52;;;;;;;16.40;11.15;;;18.40;52.70;;;;;;5073194;28;20025;-66
2022/03/10 13:44:14;;;;;;;15.77;10.82;;;13.50;64.20;;;;;;5082366;27;1417213;-64
2022/03/10 13:46:41;;;;;;;17.42;10.40;;;13.20;65.80;;;;;;5110648;28;20036;-64
2022/03/10 13:49:23;;;;;;;13.32;10.63;;;13.20;63.80;;;;;;5110517;28;20467;-64
2022/03/10 13:51:50;;;;;;;14.18;10.70;;;12.50;83.90;;;;;;5110465;28;20127;-64
2022/03/10 13:54:18;;;;;;;16.50;10.40;;;12.60;64.70;;;;;;5091995;28;20046;-63
2022/03/10 13:56:46;;;;;;;15.77;11.35;;;13.50;63.00;;;;;;5110194;28;20463;-63
2022/03/10 13:59:13;;;;;;;20.77;12.60;;;14.50;61.70;;;;;;5110414;28;20107;-63
2022/03/10 14:01:41;;;;;;;19.67;11.90;;;13.60;61.00;;;;;;5110384;28;20108;-63
2022/03/10 14:04:15;;;;;;;15.05;9.75;;;13.20;63.00;;;;;;5110290;28;20028;-63
2022/03/10 14:06:49;;;;;;;14.50;10.25;;;12.30;64.30;;;;;;5092076;28;20473;-63
2022/03/10 14:09:18;;;;;;;16.00;9.05;;;;;;;;;;5109964;28;20425;-63
2022/03/10 14:11:45;;;;;;;12.75;9.65;;;11.40;66.20;;;;;;5110292;28;20035;-63
2022/03/10 14:14:11;;;;;;;17.17;10.27;;;11.40;66.50;;;;;;5110166;28;20478;-63
2022/03/10 14:16:48;;;;;;;14.15;9.70;;;13.20;62.00;;;;;;5110112;28;20028;-64
2022/03/10 14:19:21;;;;;;;15.13;9.93;;;15.10;59.70;;;;;;5110374;28;20035;-63